sensor_id;sensor_type;location;lat;lon;timestamp;pressure;altitude;pressure_sealevel;temperature;humidity
75497;BME280;64074;47.540;19.072;2022-12-29T00:02:10;101293.94;;;1.54;75.07
75497;BME280;64074;47.540;19.072;2022-12-29T00:05:27;101298.91;;;1.51;75.38
75497;BME280;64074;47.540;19.072;2022-12-29T00:08:54;101308.56;;;1.45;75.35
75497;BME280;64074;47.540;19.072;2022-12-29T00:12:15;101302.44;;;1.32;76.21
75497;BME280;64074;47.540;19.072;2022-12-29T00:15:31;101293.81;;;1.30;76.70
75497;BME280;64074;47.540;19.072;2022-12-29T00:19:04;101282.50;;;1.34;75.62
75497;BME280;64074;47.540;19.072;2022-12-29T00:22:37;101282.13;;;1.31;76.18
75497;BME280;64074;47.540;19.072;2022-12-29T00:26:03;101290.16;;;1.17;77.51
75497;BME280;64074;47.540;19.072;2022-12-29T00:29:29;101290.34;;;1.29;76.82
75497;BME280;64074;47.540;19.072;2022-12-29T00:33:10;101287.28;;;1.26;75.74
75497;BME280;64074;47.540;19.072;2022-12-29T00:36:42;101299.38;;;1.28;75.80
75497;BME280;64074;47.540;19.072;2022-12-29T00:39:48;101300.00;;;1.17;76.46
75497;BME280;64074;47.540;19.072;2022-12-29T00:43:13;101282.97;;;1.18;77.12
75497;BME280;64074;47.540;19.072;2022-12-29T00:46:40;101289.13;;;1.25;76.32
75497;BME280;64074;47.540;19.072;2022-12-29T00:49:50;101292.00;;;1.17;76.23
75497;BME280;64074;47.540;19.072;2022-12-29T00:52:57;101287.47;;;1.17;76.69
75497;BME280;64074;47.540;19.072;2022-12-29T00:56:07;101285.22;;;1.14;76.79
75497;BME280;64074;47.540;19.072;2022-12-29T00:59:10;101288.97;;;1.07;77.36
75497;BME280;64074;47.540;19.072;2022-12-29T01:02:20;101288.34;;;1.05;77.87
75497;BME280;64074;47.540;19.072;2022-12-29T01:05:25;101292.44;;;1.14;77.15
75497;BME280;64074;47.540;19.072;2022-12-29T01:08:31;101290.38;;;1.16;76.85
75497;BME280;64074;47.540;19.072;2022-12-29T01:11:39;101290.78;;;1.13;76.84
75497;BME280;64074;47.540;19.072;2022-12-29T01:14:48;101285.47;;;0.93;78.36
75497;BME280;64074;47.540;19.072;2022-12-29T01:18:03;101284.84;;;0.98;79.32
75497;BME280;64074;47.540;19.072;2022-12-29T01:21:18;101283.38;;;1.15;78.64
75497;BME280;64074;47.540;19.072;2022-12-29T01:24:22;101286.63;;;1.23;77.71
75497;BME280;64074;47.540;19.072;2022-12-29T01:27:32;101297.97;;;1.26;78.05
75497;BME280;64074;47.540;19.072;2022-12-29T01:30:42;101288.69;;;1.28;77.30
75497;BME280;64074;47.540;19.072;2022-12-29T01:34:04;101279.03;;;1.27;77.85
75497;BME280;64074;47.540;19.072;2022-12-29T01:37:20;101276.97;;;1.29;77.98
75497;BME280;64074;47.540;19.072;2022-12-29T01:40:47;101284.28;;;1.47;76.47
75497;BME280;64074;47.540;19.072;2022-12-29T01:48:20;101274.72;;;1.19;76.71
75497;BME280;64074;47.540;19.072;2022-12-29T01:55:08;101268.84;;;0.91;78.03
75497;BME280;64074;47.540;19.072;2022-12-29T01:58:33;101275.41;;;0.95;77.76
75497;BME280;64074;47.540;19.072;2022-12-29T02:01:49;101276.88;;;0.91;78.08
75497;BME280;64074;47.540;19.072;2022-12-29T02:05:35;101273.38;;;0.90;78.43
75497;BME280;64074;47.540;19.072;2022-12-29T02:08:39;101262.06;;;0.95;78.28
75497;BME280;64074;47.540;19.072;2022-12-29T02:11:50;101253.63;;;0.98;78.09
75497;BME280;64074;47.540;19.072;2022-12-29T02:15:34;101247.75;;;0.76;79.69
75497;BME280;64074;47.540;19.072;2022-12-29T02:33:18;101246.44;;;0.99;78.17
75497;BME280;64074;47.540;19.072;2022-12-29T02:40:03;101244.59;;;0.99;78.02
75497;BME280;64074;47.540;19.072;2022-12-29T02:46:46;101249.78;;;0.87;78.63
75497;BME280;64074;47.540;19.072;2022-12-29T02:50:32;101239.91;;;0.88;78.52
75497;BME280;64074;47.540;19.072;2022-12-29T02:53:43;101241.78;;;0.81;78.87
75497;BME280;64074;47.540;19.072;2022-12-29T02:57:14;101235.00;;;0.85;78.89
75497;BME280;64074;47.540;19.072;2022-12-29T03:00:20;101237.06;;;0.83;79.40
75497;BME280;64074;47.540;19.072;2022-12-29T03:10:33;101223.91;;;0.81;79.74
75497;BME280;64074;47.540;19.072;2022-12-29T03:13:49;101229.03;;;0.83;79.45
75497;BME280;64074;47.540;19.072;2022-12-29T03:20:32;101228.88;;;0.58;80.58
75497;BME280;64074;47.540;19.072;2022-12-29T03:23:43;101221.69;;;0.65;79.88
75497;BME280;64074;47.540;19.072;2022-12-29T03:27:03;101213.06;;;0.70;79.92
75497;BME280;64074;47.540;19.072;2022-12-29T03:30:19;101226.41;;;0.76;79.54
75497;BME280;64074;47.540;19.072;2022-12-29T03:33:48;101209.56;;;0.76;79.78
75497;BME280;64074;47.540;19.072;2022-12-29T03:37:13;101203.38;;;0.82;79.19
75497;BME280;64074;47.540;19.072;2022-12-29T03:40:33;101201.75;;;0.74;79.09
75497;BME280;64074;47.540;19.072;2022-12-29T03:43:58;101212.09;;;0.51;80.26
75497;BME280;64074;47.540;19.072;2022-12-29T03:47:24;101201.81;;;0.54;81.05
75497;BME280;64074;47.540;19.072;2022-12-29T03:50:31;101202.22;;;0.51;81.21
75497;BME280;64074;47.540;19.072;2022-12-29T03:53:35;101207.72;;;0.63;81.05
75497;BME280;64074;47.540;19.072;2022-12-29T03:56:44;101196.44;;;0.61;80.72
75497;BME280;64074;47.540;19.072;2022-12-29T03:59:57;101209.19;;;0.59;81.21
75497;BME280;64074;47.540;19.072;2022-12-29T04:03:20;101221.69;;;0.58;80.73
75497;BME280;64074;47.540;19.072;2022-12-29T04:06:24;101214.13;;;0.55;80.35
75497;BME280;64074;47.540;19.072;2022-12-29T04:09:42;101209.19;;;0.52;80.45
75497;BME280;64074;47.540;19.072;2022-12-29T04:12:58;101201.78;;;0.48;80.63
75497;BME280;64074;47.540;19.072;2022-12-29T04:16:08;101206.75;;;0.51;80.68
75497;BME280;64074;47.540;19.072;2022-12-29T04:19:18;101208.59;;;0.50;80.43
75497;BME280;64074;47.540;19.072;2022-12-29T04:22:23;101210.22;;;0.45;80.47
75497;BME280;64074;47.540;19.072;2022-12-29T04:25:26;101209.78;;;0.48;80.50
75497;BME280;64074;47.540;19.072;2022-12-29T04:28:36;101214.09;;;0.49;80.15
75497;BME280;64074;47.540;19.072;2022-12-29T04:32:21;101215.34;;;0.59;79.95
75497;BME280;64074;47.540;19.072;2022-12-29T04:35:32;101210.63;;;0.61;79.72
75497;BME280;64074;47.540;19.072;2022-12-29T04:38:46;101212.88;;;0.65;80.33
75497;BME280;64074;47.540;19.072;2022-12-29T04:42:08;101212.03;;;0.64;79.54
75497;BME280;64074;47.540;19.072;2022-12-29T04:45:31;101205.69;;;0.58;79.77
75497;BME280;64074;47.540;19.072;2022-12-29T04:49:05;101201.75;;;0.68;79.38
75497;BME280;64074;47.540;19.072;2022-12-29T04:52:36;101198.50;;;0.66;78.99
75497;BME280;64074;47.540;19.072;2022-12-29T04:55:48;101212.84;;;0.78;79.00
75497;BME280;64074;47.540;19.072;2022-12-29T04:58:53;101216.31;;;0.85;78.48
75497;BME280;64074;47.540;19.072;2022-12-29T05:02:01;101220.22;;;0.82;78.23
75497;BME280;64074;47.540;19.072;2022-12-29T05:05:13;101221.28;;;0.75;79.07
75497;BME280;64074;47.540;19.072;2022-12-29T05:08:30;101225.16;;;0.72;79.02
75497;BME280;64074;47.540;19.072;2022-12-29T05:11:56;101223.94;;;0.68;79.77
75497;BME280;64074;47.540;19.072;2022-12-29T05:15:52;101219.81;;;0.79;79.24
75497;BME280;64074;47.540;19.072;2022-12-29T05:19:16;101209.53;;;0.82;78.85
75497;BME280;64074;47.540;19.072;2022-12-29T05:22:27;101220.03;;;0.77;78.86
75497;BME280;64074;47.540;19.072;2022-12-29T05:25:58;101209.59;;;0.63;79.46
75497;BME280;64074;47.540;19.072;2022-12-29T05:29:38;101217.16;;;0.66;79.52
75497;BME280;64074;47.540;19.072;2022-12-29T05:32:49;101206.91;;;0.69;79.18
75497;BME280;64074;47.540;19.072;2022-12-29T05:36:09;101214.09;;;0.62;79.36
75497;BME280;64074;47.540;19.072;2022-12-29T05:39:34;101210.22;;;0.58;80.03
75497;BME280;64074;47.540;19.072;2022-12-29T05:42:51;101205.28;;;0.61;79.80
75497;BME280;64074;47.540;19.072;2022-12-29T05:46:26;101204.25;;;0.63;79.37
75497;BME280;64074;47.540;19.072;2022-12-29T05:49:49;101201.81;;;0.54;79.24
75497;BME280;64074;47.540;19.072;2022-12-29T05:53:17;101203.06;;;0.52;78.79
75497;BME280;64074;47.540;19.072;2022-12-29T05:56:27;101197.50;;;0.53;79.18
75497;BME280;64074;47.540;19.072;2022-12-29T05:59:44;101197.09;;;0.56;79.09
75497;BME280;64074;47.540;19.072;2022-12-29T06:03:04;101196.06;;;0.51;79.44
75497;BME280;64074;47.540;19.072;2022-12-29T06:06:24;101196.25;;;0.49;79.35
75497;BME280;64074;47.540;19.072;2022-12-29T06:09:54;101195.66;;;0.47;79.43
75497;BME280;64074;47.540;19.072;2022-12-29T06:13:08;101193.41;;;0.44;79.89
75497;BME280;64074;47.540;19.072;2022-12-29T06:16:32;101196.06;;;0.44;79.87
75497;BME280;64074;47.540;19.072;2022-12-29T06:19:54;101195.28;;;0.30;80.61
75497;BME280;64074;47.540;19.072;2022-12-29T06:23:14;101204.28;;;0.23;80.10
75497;BME280;64074;47.540;19.072;2022-12-29T06:26:24;101198.56;;;0.33;80.15
75497;BME280;64074;47.540;19.072;2022-12-29T06:29:31;101201.41;;;0.38;80.02
75497;BME280;64074;47.540;19.072;2022-12-29T06:32:41;101198.53;;;0.39;79.39
75497;BME280;64074;47.540;19.072;2022-12-29T06:36:02;101198.56;;;0.33;79.99
75497;BME280;64074;47.540;19.072;2022-12-29T06:39:12;101203.69;;;0.34;79.65
75497;BME280;64074;47.540;19.072;2022-12-29T06:42:52;101200.81;;;0.36;80.50
75497;BME280;64074;47.540;19.072;2022-12-29T06:46:33;101204.91;;;0.38;79.98
75497;BME280;64074;47.540;19.072;2022-12-29T06:49:42;101205.53;;;0.34;80.56
75497;BME280;64074;47.540;19.072;2022-12-29T06:52:56;101202.84;;;0.40;80.12
75497;BME280;64074;47.540;19.072;2022-12-29T06:56:17;101215.34;;;0.46;79.93
75497;BME280;64074;47.540;19.072;2022-12-29T06:59:36;101209.59;;;0.43;80.25
75497;BME280;64074;47.540;19.072;2022-12-29T07:02:46;101215.56;;;0.51;79.98
75497;BME280;64074;47.540;19.072;2022-12-29T07:06:20;101218.22;;;0.51;80.28
75497;BME280;64074;47.540;19.072;2022-12-29T07:09:42;101220.28;;;0.56;79.78
75497;BME280;64074;47.540;19.072;2022-12-29T07:13:04;101219.66;;;0.47;80.07
75497;BME280;64074;47.540;19.072;2022-12-29T07:16:28;101224.16;;;0.60;80.18
75497;BME280;64074;47.540;19.072;2022-12-29T07:19:55;101227.66;;;0.54;80.24
75497;BME280;64074;47.540;19.072;2022-12-29T07:23:16;101224.19;;;0.53;80.17
75497;BME280;64074;47.540;19.072;2022-12-29T07:26:27;101219.81;;;0.72;79.58
75497;BME280;64074;47.540;19.072;2022-12-29T07:29:58;101218.38;;;0.83;78.97
75497;BME280;64074;47.540;19.072;2022-12-29T07:33:19;101224.47;;;1.03;78.20
75497;BME280;64074;47.540;19.072;2022-12-29T07:36:42;101228.75;;;1.11;78.13
75497;BME280;64074;47.540;19.072;2022-12-29T07:40:06;101221.81;;;1.03;78.11
75497;BME280;64074;47.540;19.072;2022-12-29T07:43:30;101228.56;;;0.99;78.58
75497;BME280;64074;47.540;19.072;2022-12-29T07:47:03;101224.25;;;1.05;78.39
75497;BME280;64074;47.540;19.072;2022-12-29T07:50:13;101234.34;;;1.03;78.48
75497;BME280;64074;47.540;19.072;2022-12-29T07:53:37;101236.59;;;0.92;79.00
75497;BME280;64074;47.540;19.072;2022-12-29T07:56:51;101241.94;;;1.06;78.63
75497;BME280;64074;47.540;19.072;2022-12-29T08:00:00;101243.97;;;0.97;78.85
75497;BME280;64074;47.540;19.072;2022-12-29T08:03:14;101239.69;;;1.03;78.75
75497;BME280;64074;47.540;19.072;2022-12-29T08:06:25;101238.38;;;1.18;78.36
75497;BME280;64074;47.540;19.072;2022-12-29T08:09:37;101228.25;;;1.34;77.23
75497;BME280;64074;47.540;19.072;2022-12-29T08:13:04;101229.28;;;1.33;77.08
75497;BME280;64074;47.540;19.072;2022-12-29T08:16:22;101230.34;;;1.25;77.21
75497;BME280;64074;47.540;19.072;2022-12-29T08:19:27;101226.84;;;1.31;77.34
75497;BME280;64074;47.540;19.072;2022-12-29T08:22:33;101232.38;;;1.30;77.89
75497;BME280;64074;47.540;19.072;2022-12-29T08:25:40;101224.16;;;1.31;77.74
75497;BME280;64074;47.540;19.072;2022-12-29T08:28:44;101220.00;;;1.42;77.61
75497;BME280;64074;47.540;19.072;2022-12-29T08:31:52;101218.97;;;1.43;77.60
75497;BME280;64074;47.540;19.072;2022-12-29T08:35:01;101219.16;;;1.41;77.65
75497;BME280;64074;47.540;19.072;2022-12-29T08:38:11;101216.94;;;1.38;77.49
75497;BME280;64074;47.540;19.072;2022-12-29T08:41:15;101215.38;;;1.24;77.61
75497;BME280;64074;47.540;19.072;2022-12-29T08:44:17;101199.03;;;1.39;78.01
75497;BME280;64074;47.540;19.072;2022-12-29T08:47:27;101200.84;;;1.45;77.36
75497;BME280;64074;47.540;19.072;2022-12-29T08:50:34;101201.75;;;1.32;78.01
75497;BME280;64074;47.540;19.072;2022-12-29T08:53:42;101197.34;;;1.51;77.19
75497;BME280;64074;47.540;19.072;2022-12-29T08:56:52;101204.34;;;1.52;77.67
75497;BME280;64074;47.540;19.072;2022-12-29T09:00:19;101204.94;;;1.54;77.36
75497;BME280;64074;47.540;19.072;2022-12-29T09:03:34;101193.50;;;1.72;76.97
75497;BME280;64074;47.540;19.072;2022-12-29T09:07:12;101201.94;;;1.75;76.91
75497;BME280;64074;47.540;19.072;2022-12-29T09:10:15;101197.91;;;1.60;76.72
75497;BME280;64074;47.540;19.072;2022-12-29T09:13:19;101192.28;;;1.74;76.75
75497;BME280;64074;47.540;19.072;2022-12-29T09:16:28;101201.06;;;1.81;76.66
75497;BME280;64074;47.540;19.072;2022-12-29T09:19:39;101193.78;;;1.64;76.65
75497;BME280;64074;47.540;19.072;2022-12-29T09:23:09;101177.19;;;1.55;76.80
75497;BME280;64074;47.540;19.072;2022-12-29T09:26:32;101177.34;;;1.60;77.25
75497;BME280;64074;47.540;19.072;2022-12-29T09:29:56;101180.84;;;1.61;76.65
75497;BME280;64074;47.540;19.072;2022-12-29T09:33:06;101174.47;;;1.62;76.97
75497;BME280;64074;47.540;19.072;2022-12-29T09:36:29;101164.47;;;1.50;77.60
75497;BME280;64074;47.540;19.072;2022-12-29T09:39:45;101154.13;;;1.61;77.38
75497;BME280;64074;47.540;19.072;2022-12-29T09:46:26;101166.16;;;1.76;76.43
75497;BME280;64074;47.540;19.072;2022-12-29T09:49:43;101161.13;;;1.87;76.67
75497;BME280;64074;47.540;19.072;2022-12-29T09:53:15;101158.22;;;1.88;76.82
75497;BME280;64074;47.540;19.072;2022-12-29T09:56:25;101156.31;;;1.95;76.11
75497;BME280;64074;47.540;19.072;2022-12-29T09:59:41;101153.19;;;1.98;75.73
75497;BME280;64074;47.540;19.072;2022-12-29T10:03:15;101140.34;;;1.89;76.66
75497;BME280;64074;47.540;19.072;2022-12-29T10:10:37;101136.97;;;1.68;77.72
75497;BME280;64074;47.540;19.072;2022-12-29T10:24:29;101125.00;;;2.02;75.56
75497;BME280;64074;47.540;19.072;2022-12-29T10:27:48;101127.31;;;2.17;76.12
75497;BME280;64074;47.540;19.072;2022-12-29T10:31:20;101121.16;;;2.16;74.92
75497;BME280;64074;47.540;19.072;2022-12-29T10:34:38;101121.41;;;2.33;74.98
75497;BME280;64074;47.540;19.072;2022-12-29T10:37:59;101116.34;;;2.43;74.84
75497;BME280;64074;47.540;19.072;2022-12-29T10:41:25;101110.81;;;2.20;75.24
75497;BME280;64074;47.540;19.072;2022-12-29T10:44:40;101113.22;;;2.65;73.86
75497;BME280;64074;47.540;19.072;2022-12-29T10:47:59;101112.41;;;2.83;73.70
75497;BME280;64074;47.540;19.072;2022-12-29T10:51:07;101111.13;;;3.03;73.00
75497;BME280;64074;47.540;19.072;2022-12-29T10:54:30;101102.31;;;3.15;71.81
75497;BME280;64074;47.540;19.072;2022-12-29T10:57:44;101105.94;;;3.20;71.83
75497;BME280;64074;47.540;19.072;2022-12-29T11:00:54;101095.44;;;3.19;71.56
75497;BME280;64074;47.540;19.072;2022-12-29T11:07:43;101089.63;;;3.52;70.94
75497;BME280;64074;47.540;19.072;2022-12-29T11:11:07;101093.94;;;3.53;70.64
75497;BME280;64074;47.540;19.072;2022-12-29T11:14:27;101098.13;;;3.49;71.28
75497;BME280;64074;47.540;19.072;2022-12-29T11:17:50;101094.63;;;3.71;70.86
75497;BME280;64074;47.540;19.072;2022-12-29T11:21:02;101090.69;;;3.74;70.39
75497;BME280;64074;47.540;19.072;2022-12-29T11:24:28;101090.13;;;3.84;70.44
75497;BME280;64074;47.540;19.072;2022-12-29T11:27:59;101085.22;;;3.92;70.10
75497;BME280;64074;47.540;19.072;2022-12-29T11:31:15;101072.16;;;3.84;70.28
75497;BME280;64074;47.540;19.072;2022-12-29T11:34:34;101076.03;;;4.00;69.32
75497;BME280;64074;47.540;19.072;2022-12-29T11:37:57;101055.34;;;4.12;69.76
75497;BME280;64074;47.540;19.072;2022-12-29T11:41:20;101051.38;;;4.26;68.91
75497;BME280;64074;47.540;19.072;2022-12-29T11:44:36;101047.88;;;4.26;69.20
75497;BME280;64074;47.540;19.072;2022-12-29T11:48:12;101052.50;;;4.42;68.89
75497;BME280;64074;47.540;19.072;2022-12-29T11:51:37;101056.00;;;4.54;68.55
75497;BME280;64074;47.540;19.072;2022-12-29T11:54:48;101051.56;;;4.48;68.42
75497;BME280;64074;47.540;19.072;2022-12-29T11:58:00;101060.75;;;4.64;68.31
75497;BME280;64074;47.540;19.072;2022-12-29T12:01:39;101059.91;;;4.75;68.07
75497;BME280;64074;47.540;19.072;2022-12-29T12:04:56;101048.03;;;4.88;67.25
75497;BME280;64074;47.540;19.072;2022-12-29T12:08:54;101066.34;;;4.74;67.47
75497;BME280;64074;47.540;19.072;2022-12-29T12:11:47;101054.59;;;4.40;67.56
75497;BME280;64074;47.540;19.072;2022-12-29T12:14:58;101054.59;;;4.40;68.50
75497;BME280;64074;47.540;19.072;2022-12-29T12:18:34;101046.50;;;4.23;68.95
75497;BME280;64074;47.540;19.072;2022-12-29T12:22:07;101035.00;;;4.40;68.56
75497;BME280;64074;47.540;19.072;2022-12-29T12:25:24;101024.31;;;4.16;69.35
75497;BME280;64074;47.540;19.072;2022-12-29T12:29:01;101009.66;;;4.47;68.50
75497;BME280;64074;47.540;19.072;2022-12-29T12:32:27;101001.22;;;4.55;67.73
75497;BME280;64074;47.540;19.072;2022-12-29T12:45:49;100991.22;;;4.39;69.22
75497;BME280;64074;47.540;19.072;2022-12-29T13:05:57;100992.81;;;4.12;70.29
75497;BME280;64074;47.540;19.072;2022-12-29T13:09:29;100994.94;;;4.10;70.54
75497;BME280;64074;47.540;19.072;2022-12-29T13:17:03;100998.75;;;4.14;70.30
75497;BME280;64074;47.540;19.072;2022-12-29T13:23:54;101006.56;;;4.15;70.80
75497;BME280;64074;47.540;19.072;2022-12-29T13:37:09;101013.47;;;4.23;70.61
75497;BME280;64074;47.540;19.072;2022-12-29T13:40:23;101016.84;;;4.18;70.47
75497;BME280;64074;47.540;19.072;2022-12-29T13:43:35;101007.97;;;4.18;70.38
75497;BME280;64074;47.540;19.072;2022-12-29T13:47:00;101002.97;;;4.21;70.47
75497;BME280;64074;47.540;19.072;2022-12-29T13:50:19;101015.72;;;4.03;70.95
75497;BME280;64074;47.540;19.072;2022-12-29T13:54:05;101020.72;;;4.11;70.97
75497;BME280;64074;47.540;19.072;2022-12-29T14:01:03;101023.06;;;4.07;71.27
75497;BME280;64074;47.540;19.072;2022-12-29T14:04:21;101027.38;;;4.08;71.49
75497;BME280;64074;47.540;19.072;2022-12-29T14:07:26;101036.47;;;3.95;71.69
75497;BME280;64074;47.540;19.072;2022-12-29T14:10:38;101037.50;;;3.94;71.35
75497;BME280;64074;47.540;19.072;2022-12-29T14:13:55;101032.16;;;3.83;71.68
75497;BME280;64074;47.540;19.072;2022-12-29T14:17:20;101021.78;;;3.86;71.83
75497;BME280;64074;47.540;19.072;2022-12-29T14:20:49;101020.97;;;3.86;71.29
75497;BME280;64074;47.540;19.072;2022-12-29T14:27:51;101017.59;;;3.79;72.09
75497;BME280;64074;47.540;19.072;2022-12-29T14:31:02;101007.56;;;3.74;72.29
75497;BME280;64074;47.540;19.072;2022-12-29T14:37:30;101023.06;;;3.60;73.10
75497;BME280;64074;47.540;19.072;2022-12-29T14:40:37;101028.53;;;3.54;73.41
75497;BME280;64074;47.540;19.072;2022-12-29T14:43:55;101027.50;;;3.55;73.09
75497;BME280;64074;47.540;19.072;2022-12-29T14:47:06;101024.47;;;3.51;73.39
75497;BME280;64074;47.540;19.072;2022-12-29T14:53:50;101035.25;;;3.45;73.26
75497;BME280;64074;47.540;19.072;2022-12-29T14:57:05;101035.63;;;3.36;73.93
75497;BME280;64074;47.540;19.072;2022-12-29T15:00:23;101039.69;;;3.27;74.06
75497;BME280;64074;47.540;19.072;2022-12-29T15:03:48;101034.50;;;3.14;74.20
75497;BME280;64074;47.540;19.072;2022-12-29T15:07:07;101034.75;;;3.13;74.98
75497;BME280;64074;47.540;19.072;2022-12-29T15:10:36;101050.91;;;3.06;75.43
75497;BME280;64074;47.540;19.072;2022-12-29T15:13:48;101060.09;;;2.98;76.00
75497;BME280;64074;47.540;19.072;2022-12-29T15:17:30;101067.31;;;2.98;75.36
75497;BME280;64074;47.540;19.072;2022-12-29T15:20:50;101059.94;;;2.93;75.96
75497;BME280;64074;47.540;19.072;2022-12-29T15:24:08;101053.28;;;2.84;75.99
75497;BME280;64074;47.540;19.072;2022-12-29T15:27:23;101062.91;;;2.73;75.99
75497;BME280;64074;47.540;19.072;2022-12-29T15:31:02;101058.56;;;2.72;75.99
75497;BME280;64074;47.540;19.072;2022-12-29T15:34:20;101064.91;;;2.60;76.05
75497;BME280;64074;47.540;19.072;2022-12-29T15:37:34;101063.88;;;2.61;77.02
75497;BME280;64074;47.540;19.072;2022-12-29T15:40:43;101061.97;;;2.50;76.93
75497;BME280;64074;47.540;19.072;2022-12-29T15:44:19;101063.19;;;2.47;76.60
75497;BME280;64074;47.540;19.072;2022-12-29T15:47:34;101073.47;;;2.50;76.92
75497;BME280;64074;47.540;19.072;2022-12-29T15:50:54;101061.34;;;2.47;76.87
75497;BME280;64074;47.540;19.072;2022-12-29T15:54:05;101062.84;;;2.43;77.45
75497;BME280;64074;47.540;19.072;2022-12-29T15:57:42;101069.09;;;2.37;77.25
75497;BME280;64074;47.540;19.072;2022-12-29T16:01:03;101067.44;;;2.36;77.35
75497;BME280;64074;47.540;19.072;2022-12-29T16:04:14;101065.31;;;2.27;77.33
75497;BME280;64074;47.540;19.072;2022-12-29T16:08:00;101066.34;;;2.26;77.28
75497;BME280;64074;47.540;19.072;2022-12-29T16:11:22;101067.22;;;2.20;77.09
75497;BME280;64074;47.540;19.072;2022-12-29T16:14:41;101061.41;;;2.04;78.02
75497;BME280;64074;47.540;19.072;2022-12-29T16:17:57;101058.78;;;1.98;78.40
75497;BME280;64074;47.540;19.072;2022-12-29T16:21:22;101062.28;;;1.98;78.32
75497;BME280;64074;47.540;19.072;2022-12-29T16:24:40;101056.66;;;2.06;77.76
75497;BME280;64074;47.540;19.072;2022-12-29T16:28:18;101055.63;;;2.07;78.06
75497;BME280;64074;47.540;19.072;2022-12-29T16:31:35;101070.31;;;1.98;78.53
75497;BME280;64074;47.540;19.072;2022-12-29T16:34:45;101063.16;;;1.92;78.69
75497;BME280;64074;47.540;19.072;2022-12-29T16:38:31;101075.72;;;1.92;78.89
75497;BME280;64074;47.540;19.072;2022-12-29T16:41:38;101075.13;;;1.90;78.86
75497;BME280;64074;47.540;19.072;2022-12-29T16:44:48;101077.94;;;1.95;79.27
75497;BME280;64074;47.540;19.072;2022-12-29T16:51:36;101085.94;;;1.76;79.15
75497;BME280;64074;47.540;19.072;2022-12-29T16:54:40;101093.41;;;1.68;80.01
75497;BME280;64074;47.540;19.072;2022-12-29T16:57:49;101092.22;;;1.64;79.67
75497;BME280;64074;47.540;19.072;2022-12-29T17:01:02;101089.53;;;1.64;81.32
75497;BME280;64074;47.540;19.072;2022-12-29T17:04:23;101091.88;;;1.53;80.35
75497;BME280;64074;47.540;19.072;2022-12-29T17:07:33;101090.72;;;1.68;82.57
75497;BME280;64074;47.540;19.072;2022-12-29T17:10:36;101089.31;;;1.65;80.76
75497;BME280;64074;47.540;19.072;2022-12-29T17:13:58;101099.03;;;1.60;81.25
75497;BME280;64074;47.540;19.072;2022-12-29T17:20:24;101097.44;;;1.52;80.54
75497;BME280;64074;47.540;19.072;2022-12-29T17:23:42;101088.41;;;1.46;81.08
75497;BME280;64074;47.540;19.072;2022-12-29T17:26:58;101087.81;;;1.44;81.29
75497;BME280;64074;47.540;19.072;2022-12-29T17:30:11;101086.56;;;1.47;80.90
75497;BME280;64074;47.540;19.072;2022-12-29T17:33:19;101076.09;;;1.45;81.45
75497;BME280;64074;47.540;19.072;2022-12-29T17:36:29;101070.81;;;1.39;81.73
75497;BME280;64074;47.540;19.072;2022-12-29T17:39:43;101083.41;;;1.32;81.69
75497;BME280;64074;47.540;19.072;2022-12-29T17:43:12;101082.16;;;1.34;81.95
75497;BME280;64074;47.540;19.072;2022-12-29T17:46:28;101075.94;;;1.40;81.80
75497;BME280;64074;47.540;19.072;2022-12-29T17:49:52;101082.16;;;1.34;83.12
75497;BME280;64074;47.540;19.072;2022-12-29T17:53:14;101081.94;;;1.36;82.96
75497;BME280;64074;47.540;19.072;2022-12-29T17:56:18;101073.09;;;1.35;82.64
75497;BME280;64074;47.540;19.072;2022-12-29T17:59:22;101085.66;;;1.35;82.81
75497;BME280;64074;47.540;19.072;2022-12-29T18:02:32;101075.19;;;1.33;81.64
75497;BME280;64074;47.540;19.072;2022-12-29T18:05:56;101076.88;;;1.28;83.05
75497;BME280;64074;47.540;19.072;2022-12-29T18:09:15;101077.69;;;1.28;82.49
75497;BME280;64074;47.540;19.072;2022-12-29T18:12:38;101081.16;;;1.29;81.74
75497;BME280;64074;47.540;19.072;2022-12-29T18:16:01;101070.00;;;1.38;82.33
75497;BME280;64074;47.540;19.072;2022-12-29T18:19:17;101067.59;;;1.30;82.35
75497;BME280;64074;47.540;19.072;2022-12-29T18:22:43;101062.47;;;1.29;83.19
75497;BME280;64074;47.540;19.072;2022-12-29T18:26:02;101051.19;;;1.27;82.66
75497;BME280;64074;47.540;19.072;2022-12-29T18:29:19;101057.78;;;1.24;83.17
75497;BME280;64074;47.540;19.072;2022-12-29T18:32:35;101049.56;;;1.26;83.10
75497;BME280;64074;47.540;19.072;2022-12-29T18:35:40;101048.31;;;1.28;83.80
75497;BME280;64074;47.540;19.072;2022-12-29T18:38:51;101048.03;;;1.36;83.38
75497;BME280;64074;47.540;19.072;2022-12-29T18:42:05;101049.34;;;1.27;82.98
75497;BME280;64074;47.540;19.072;2022-12-29T18:45:31;101049.34;;;1.20;83.28
75497;BME280;64074;47.540;19.072;2022-12-29T18:48:51;101045.66;;;1.21;82.65
75497;BME280;64074;47.540;19.072;2022-12-29T18:52:12;101059.81;;;1.22;83.78
75497;BME280;64074;47.540;19.072;2022-12-29T18:55:37;101049.78;;;1.24;83.70
75497;BME280;64074;47.540;19.072;2022-12-29T18:58:57;101055.44;;;1.34;83.36
75497;BME280;64074;47.540;19.072;2022-12-29T19:02:04;101044.59;;;1.29;82.49
75497;BME280;64074;47.540;19.072;2022-12-29T19:05:29;101048.91;;;1.30;84.43
75497;BME280;64074;47.540;19.072;2022-12-29T19:08:33;101034.34;;;1.26;82.67
75497;BME280;64074;47.540;19.072;2022-12-29T19:11:43;101036.41;;;1.24;82.05
75497;BME280;64074;47.540;19.072;2022-12-29T19:15:05;101033.69;;;1.31;83.11
75497;BME280;64074;47.540;19.072;2022-12-29T19:18:18;101032.72;;;1.25;83.72
75497;BME280;64074;47.540;19.072;2022-12-29T19:22:12;101035.78;;;1.22;82.96
75497;BME280;64074;47.540;19.072;2022-12-29T19:25:15;101038.00;;;1.32;82.72